ADDS METAR Data INFO
IDs: Format: Raw Decoded Include TAF

Data at: 1130 UTC 17 Jul 2018

KGHW 171115Z AUTO 02004KT 10SM CLR 14/12 A3015 RMK AO2
KGHW 171055Z AUTO 02003KT 10SM CLR 14/12 A3015 RMK AO2
KGHW 171035Z AUTO 03003KT 10SM CLR 14/12 A3015 RMK AO2
KGHW 171015Z AUTO 04004KT 10SM CLR 14/12 A3014 RMK AO2
KGHW 170955Z AUTO 05003KT 10SM CLR 14/12 A3014 RMK AO2
KGHW 170935Z AUTO 05003KT 10SM SCT060 14/12 A3014 RMK AO2
KGHW 170915Z AUTO 07003KT 10SM SCT060 15/13 A3014 RMK AO2
KGHW 170855Z AUTO 04005KT 10SM SCT060 14/12 A3013 RMK AO2
KGHW 170835Z AUTO 04006KT 10SM SCT060 SCT075 15/12 A3013 RMK AO2
KGHW 170815Z AUTO 03006KT 10SM SCT060 14/12 A3013 RMK AO2
KGHW 170755Z AUTO 04007KT 10SM SCT060 14/12 A3013 RMK AO2
KGHW 170735Z AUTO 04006KT 10SM SCT060 14/12 A3013 RMK AO2
KGHW 170715Z AUTO 04006KT 10SM CLR 15/12 A3012 RMK AO2
KGHW 170656Z AUTO 05004KT 10SM SCT060 15/13 A3013 RMK AO2
KGHW 170635Z AUTO 05004KT 10SM SCT060 16/13 A3013 RMK AO2
KGHW 170615Z AUTO 05003KT 10SM SCT060 16/13 A3011 RMK AO2 LTG DSNT SW
KGHW 170555Z AUTO 03004KT 10SM SCT060 17/13 A3010 RMK AO2
KGHW 170535Z AUTO 04006KT 10SM CLR 16/13 A3010 RMK AO2
KGHW 170515Z AUTO 04006KT 10SM CLR 17/13 A3011 RMK AO2
KGHW 170455Z AUTO 03006KT 10SM CLR 18/13 A3011 RMK AO2
KGHW 170435Z AUTO 03007KT 10SM SCT045 18/13 A3010 RMK AO2
KGHW 170415Z AUTO 04006KT 10SM SCT045 19/13 A3010 RMK AO2
KGHW 170355Z AUTO 03006KT 10SM CLR 18/13 A3010 RMK AO2
KGHW 170335Z AUTO 02008KT 10SM CLR 19/13 A3009 RMK AO2
KGHW 170315Z AUTO 02008KT 10SM SCT050 20/13 A3008 RMK AO2
KGHW 170255Z AUTO 02005KT 10SM SCT050 19/14 A3008 RMK AO2
KGHW 170235Z AUTO 03003KT 10SM CLR 20/15 A3007 RMK AO2
KGHW 170215Z AUTO 36004KT 10SM SCT055 21/15 A3006 RMK AO2
KGHW 170155Z AUTO 00000KT 10SM CLR 21/15 A3005 RMK AO2
KGHW 170135Z AUTO 35005KT 10SM CLR 22/15 A3004 RMK AO2
KGHW 170115Z AUTO 35006KT 10SM CLR 23/15 A3004 RMK AO2
KGHW 170055Z AUTO 35005KT 10SM CLR 24/16 A3005 RMK AO2
KGHW 170035Z AUTO 34009KT 10SM CLR 24/16 A3005 RMK AO2
KGHW 170015Z AUTO 33009KT 10SM CLR 25/16 A3005 RMK AO2
KGHW 162355Z AUTO 34007KT 10SM CLR 26/16 A3005 RMK AO2
KGHW 162335Z AUTO 34008KT 10SM CLR 26/16 A3005 RMK AO2
KGHW 162315Z AUTO 31008KT 10SM CLR 27/16 A3005 RMK AO2
KGHW 162255Z AUTO 28009KT 10SM CLR 27/16 A3006 RMK AO2
KGHW 162235Z AUTO 29011KT 10SM CLR 27/16 A3006 RMK AO2
KGHW 162215Z AUTO 28010KT 10SM CLR 27/15 A3007 RMK AO2
KGHW 162155Z AUTO 28013KT 10SM CLR 27/15 A3007 RMK AO2
KGHW 162136Z AUTO 29011G15KT 10SM CLR 27/14 A3007 RMK AO2
KGHW 162115Z AUTO 29012KT 10SM CLR 27/14 A3007 RMK AO2
KGHW 162055Z AUTO 28012G17KT 10SM CLR 27/14 A3007 RMK AO2
KGHW 162035Z AUTO 27013G16KT 10SM CLR 27/14 A3007 RMK AO2
KGHW 162015Z AUTO 28014KT 10SM CLR 27/14 A3008 RMK AO2
KGHW 161955Z AUTO 28013G20KT 10SM CLR 27/13 A3008 RMK AO2
KGHW 161935Z AUTO 28011G15KT 10SM CLR 27/14 A3008 RMK AO2
KGHW 161915Z AUTO 26015G19KT 10SM CLR 27/13 A3008 RMK AO2
KGHW 161855Z AUTO 29010G20KT 10SM CLR 27/14 A3008 RMK AO2
KGHW 161835Z AUTO 27014G19KT 10SM CLR 27/12 A3008 RMK AO2
KGHW 161815Z AUTO 29011KT 10SM CLR 26/13 A3008 RMK AO2
KGHW 161755Z AUTO 29010G17KT 10SM CLR 26/13 A3008 RMK AO2
KGHW 161735Z AUTO 28009G15KT 10SM CLR 26/13 A3009 RMK AO2
KGHW 161715Z AUTO 30011G16KT 10SM CLR 26/12 A3008 RMK AO2
KGHW 161655Z AUTO 28011KT 10SM CLR 26/13 A3008 RMK AO2
KGHW 161636Z AUTO 27011KT 10SM CLR 25/12 A3008 RMK AO2
KGHW 161615Z AUTO 30011KT 10SM CLR 25/12 A3008 RMK AO2
KGHW 161555Z AUTO 29011KT 10SM CLR 24/13 A3008 RMK AO2
KGHW 161535Z AUTO 29008KT 10SM CLR 24/14 A3008 RMK AO2
KGHW 161515Z AUTO 27007KT 10SM CLR 23/16 A3008 RMK AO2
KGHW 161455Z AUTO 26007KT 10SM CLR 22/15 A3007 RMK AO2
KGHW 161435Z AUTO 26007KT 10SM CLR 22/14 A3007 RMK AO2
KGHW 161415Z AUTO 27006KT 10SM CLR 21/14 A3007 RMK AO2
KGHW 161355Z AUTO 29005KT 10SM CLR 21/14 A3007 RMK AO2
KGHW 161335Z AUTO 26005KT 10SM CLR 20/15 A3007 RMK AO2
KGHW 161315Z AUTO 26004KT 10SM CLR 19/15 A3007 RMK AO2
KGHW 161255Z AUTO 23004KT 10SM CLR 18/16 A3008 RMK AO2
KGHW 161235Z AUTO 24004KT 10SM CLR 17/15 A3007 RMK AO2
KGHW 161215Z AUTO 22003KT 10SM CLR 16/14 A3007 RMK AO2
KGHW 161155Z AUTO 25006KT 10SM CLR 16/14 A3007 RMK AO2
KGHW 161135Z AUTO 26007KT 10SM CLR 15/13 A3006 RMK AO2
KGHW 161115Z AUTO 26007KT 10SM CLR 14/12 A3006 RMK AO2
KGHW 161055Z AUTO 31006KT 10SM CLR 14/12 A3005 RMK AO2
KGHW 161035Z AUTO 28004KT 10SM CLR 14/12 A3006 RMK AO2
KGHW 161015Z AUTO 28005KT 10SM CLR 14/12 A3006 RMK AO2
KGHW 160955Z AUTO 26006KT 10SM CLR 14/13 A3006 RMK AO2
KGHW 160935Z AUTO 28005KT 10SM CLR 14/13 A3005 RMK AO2
KGHW 160915Z AUTO 28006KT 10SM CLR 14/13 A3006 RMK AO2
KGHW 160855Z AUTO 27005KT 10SM CLR 15/13 A3006 RMK AO2
KGHW 160835Z AUTO 26006KT 10SM CLR 14/13 A3006 RMK AO2
KGHW 160816Z AUTO 26006KT 10SM CLR 14/13 A3006 RMK AO2
KGHW 160755Z AUTO 27005KT 10SM CLR 14/13 A3006 RMK AO2
KGHW 160735Z AUTO 26004KT 10SM CLR 14/13 A3006 RMK AO2
KGHW 160715Z AUTO 28005KT 10SM CLR 14/13 A3006 RMK AO2
KGHW 160655Z AUTO 27003KT 10SM CLR 15/13 A3006 RMK AO2
KGHW 160635Z AUTO 29005KT 10SM CLR 16/14 A3006 RMK AO2
KGHW 160615Z AUTO 28005KT 10SM CLR 16/14 A3007 RMK AO2
KGHW 160555Z AUTO 27006KT 10SM CLR 15/13 A3006 RMK AO2
KGHW 160535Z AUTO 26005KT 10SM CLR 15/13 A3007 RMK AO2
KGHW 160515Z AUTO 25005KT 10SM CLR 15/13 A3007 RMK AO2
KGHW 160455Z AUTO 26005KT 10SM CLR 15/13 A3007 RMK AO2
KGHW 160435Z AUTO 27005KT 10SM CLR 16/13 A3006 RMK AO2
KGHW 160415Z AUTO 26005KT 10SM CLR 16/13 A3006 RMK AO2
KGHW 160355Z AUTO 26005KT 10SM CLR 16/13 A3006 RMK AO2
KGHW 160335Z AUTO 26005KT 10SM CLR 17/14 A3006 RMK AO2
KGHW 160315Z AUTO 26006KT 10SM CLR 16/13 A3006 RMK AO2
KGHW 160255Z AUTO 26005KT 10SM CLR 17/13 A3005 RMK AO2
KGHW 160235Z AUTO 27004KT 10SM CLR 17/13 A3005 RMK AO2
KGHW 160216Z AUTO 28005KT 10SM CLR 18/13 A3004 RMK AO2
KGHW 160155Z AUTO 29006KT 10SM CLR 19/14 A3004 RMK AO2
KGHW 160135Z AUTO 28006KT 10SM CLR 20/14 A3004 RMK AO2
KGHW 160115Z AUTO 27006KT 10SM CLR 21/15 A3004 RMK AO2
KGHW 160055Z AUTO 27008KT 10SM CLR 20/15 A3004 RMK AO2
KGHW 160035Z AUTO 28008KT 10SM CLR 21/14 A3005 RMK AO2
KGHW 160015Z AUTO 29008KT 10SM CLR 21/14 A3005 RMK AO2
KGHW 152355Z AUTO 31010KT 10SM CLR 22/14 A3005 RMK AO2
KGHW 152335Z AUTO 30009KT 10SM CLR 22/14 A3005 RMK AO2